WetterOnline ( https://www.wetteronline.de )

Wetter aktuell Wasserbillig

Aktuelles Wetter: Trier/Petrisberg (273m)

6-stündlich | Neueste Meldungen
Ortszeit Temperatur Wetter
Sa, 13.07. 14:00 19.4° C bewölkt
Sa, 13.07. 8:00 13.6° C bedeckt
Sa, 13.07. 2:00 14.0° C bedeckt
Fr, 12.07. 20:00 16.0° C bewölkt
Fr, 12.07. 14:00 21.2° C bewölkt
Fr, 12.07. 8:00 16.4° C wolkig
Fr, 12.07. 2:00 18.5° C wolkig
Do, 11.07. 20:00 24.1° C bedeckt
Ortszeit Temperatur Wetter
Sa, 13.07. 14:30 18.7° C wolkig
Sa, 13.07. 14:20 18.7° C wolkig
Sa, 13.07. 14:10 20.3° C leicht bewölkt
Sa, 13.07. 14:00 19.4° C bewölkt
Sa, 13.07. 13:50 19.4° C bewölkt
Sa, 13.07. 13:40 19.3° C bewölkt
Sa, 13.07. 13:30 19.0° C bewölkt
Sa, 13.07. 13:00 18.8° C bewölkt
Sa, 13.07. 12:30 17.5° C bewölkt
Sa, 13.07. 12:00 16.9° C bewölkt
Sa, 13.07. 11:30 17.4° C bewölkt
Ortszeit Relative Feuchte Sichtweite
Sa, 13.07. 14:00 52% >70 km
Sa, 13.07. 8:00 87% 50 km
Sa, 13.07. 2:00 81% 65 km
Fr, 12.07. 20:00 73% 65 km
Fr, 12.07. 14:00 70% 65 km
Fr, 12.07. 8:00 93% 15 km
Fr, 12.07. 2:00 77% 55 km
Do, 11.07. 20:00 54% 60 km
Ortszeit Relative Feuchte Sichtweite
Sa, 13.07. 14:30 49% 55 km
Sa, 13.07. 14:20 49% -
Sa, 13.07. 14:10 49% -
Sa, 13.07. 14:00 52% >70 km
Sa, 13.07. 13:50 52% -
Sa, 13.07. 13:40 52% -
Sa, 13.07. 13:30 53% 60 km
Sa, 13.07. 13:00 55% 60 km
Sa, 13.07. 12:30 58% 60 km
Sa, 13.07. 12:00 58% >70 km
Sa, 13.07. 11:30 59% 45 km
Ortszeit Niederschlagsmenge Niederschlagsart
Sa, 13.07. 14:00 0.0 l/m2 in 6 Std. -
Sa, 13.07. 8:00 0.1 l/m2 in 12 Std. Regen
Sa, 13.07. 2:00 0.0 l/m2 in 6 Std. -
Fr, 12.07. 20:00 6 l/m2 in 12 Std. Regen
Fr, 12.07. 14:00 6 l/m2 in 6 Std. Regen
Fr, 12.07. 8:00 5 l/m2 in 12 Std. Regen
Fr, 12.07. 2:00 0.0 l/m2 in 6 Std. -
Do, 11.07. 20:00 0.0 l/m2 in 12 Std. -
Ortszeit Niederschlagsmenge Niederschlagsart
Sa, 13.07. 14:30 0.0 l/m2 in 30 Min -
Sa, 13.07. 14:20 keine Meldung -
Sa, 13.07. 14:10 keine Meldung -
Sa, 13.07. 14:00 0.0 l/m2 in 1 Std. -
Sa, 13.07. 13:50 keine Meldung -
Sa, 13.07. 13:40 keine Meldung -
Sa, 13.07. 13:30 0.0 l/m2 in 30 Min -
Sa, 13.07. 13:00 0.0 l/m2 in 1 Std. -
Sa, 13.07. 12:30 0.0 l/m2 in 30 Min -
Sa, 13.07. 12:00 0.0 l/m2 in 1 Std. -
Sa, 13.07. 11:30 0.0 l/m2 in 30 Min -
Ortszeit Stärke Spitze Richtung
km/h Bft. km/h Grad Sektor
Sa, 13.07. 14:00 9 2 30 240° SW
Sa, 13.07. 8:00 9 2 17 230° SW
Sa, 13.07. 2:00 4 1 25 280° W
Fr, 12.07. 20:00 11 2 39 340° N
Fr, 12.07. 14:00 18 3 58 230° SW
Fr, 12.07. 8:00 13 3 28 20° N
Fr, 12.07. 2:00 13 3 22 40° NO
Do, 11.07. 20:00 6 1 19 230° SW
Ortszeit Stärke Spitze Richtung
km/h Bft. km/h Grad Sektor
Sa, 13.07. 14:30 13 3 24 220° SW
Sa, 13.07. 14:20 13 3 - 220° SW
Sa, 13.07. 14:10 15 3 - 220° SW
Sa, 13.07. 14:00 9 2 26 240° SW
Sa, 13.07. 13:50 9 2 - 240° SW
Sa, 13.07. 13:40 14 3 - 240° SW
Sa, 13.07. 13:30 14 3 25 240° SW
Sa, 13.07. 13:00 13 3 26 240° SW
Sa, 13.07. 12:30 13 3 24 260° W
Sa, 13.07. 12:00 18 3 29 220° SW
Sa, 13.07. 11:30 14 3 29 220° SW
Ortszeit Untergrenze Bedeckung Gattung
total tief tief mittel hoch
Sa, 13.07. 14:00 1200 m 7/8 7/8 - - -
Sa, 13.07. 8:00 300 m 8/8 8/8 - - -
Sa, 13.07. 2:00 1080 m 8/8 8/8 - - -
Fr, 12.07. 20:00 600 m 7/8 7/8 - - -
Fr, 12.07. 14:00 780 m 7/8 7/8 - - -
Fr, 12.07. 8:00 60 m 8/8 1/8 - - -
Fr, 12.07. 2:00 2100 m 8/8 1/8 - - -
Do, 11.07. 20:00 5100 m 8/8 8/8 - - -
Ortszeit Bedeckungsgrad in Achtel und Wolkenuntergrenze
Sa, 13.07. 14:30 4(1320m) 5(1500m) 5(1800m)
Sa, 13.07. 14:20 4(1320m) 5(1500m) 5(1800m)
Sa, 13.07. 14:10 4
Sa, 13.07. 14:00 5(1200m) 6(1410m) 7(2100m)
Sa, 13.07. 13:50 5(1200m) 6(1410m) 7(2100m)
Sa, 13.07. 13:40 7
Sa, 13.07. 13:30 1(1170m) 7(2100m)
Sa, 13.07. 13:00 1(1080m) 3(1350m) 7(2100m)
Sa, 13.07. 12:30 5(1020m) 7(1380m)
Sa, 13.07. 12:00 1(870m) 7(1050m)
Sa, 13.07. 11:30 2(780m) 6(1020m) 7(1800m)
Ortszeit Luftdruck NN (hPa) Tendenz (hPa in 3 Std.)
Sa, 13.07. 14:00 1014 - 0,3
Sa, 13.07. 8:00 1015 + 0,6
Sa, 13.07. 2:00 1014 + 0,1
Fr, 12.07. 20:00 1012 + 0,8
Fr, 12.07. 14:00 1010 + 2,0
Fr, 12.07. 8:00 1009 - 2,0
Fr, 12.07. 2:00 1014 - 1,5
Do, 11.07. 20:00 1015 - 0,9
Ortszeit Luftdruck NN (hPa) Tendenz (hPa in 3 Std.)
Sa, 13.07. 14:30 1014 - 0,3
Sa, 13.07. 14:20 1014 keine Meldung
Sa, 13.07. 14:10 1014 keine Meldung
Sa, 13.07. 14:00 1014 - 0,3
Sa, 13.07. 13:50 1014 keine Meldung
Sa, 13.07. 13:40 1014 keine Meldung
Sa, 13.07. 13:30 1014 - 0,3
Sa, 13.07. 13:00 1014 - 0,2
Sa, 13.07. 12:30 1014 - 0,1
Sa, 13.07. 12:00 1014 0,0
Sa, 13.07. 11:30 1014 0,0
Ortszeit Schneehöhe (cm)
Sa, 13.07. 14:00 -
Sa, 13.07. 8:00 0
Sa, 13.07. 2:00 0
Fr, 12.07. 20:00 0
Fr, 12.07. 14:00 0
Fr, 12.07. 8:00 0
Fr, 12.07. 2:00 0
Do, 11.07. 20:00 0
Ortszeit Schneehöhe (cm)
Sa, 13.07. 14:30 -
Sa, 13.07. 14:20 0
Sa, 13.07. 14:10 -
Sa, 13.07. 14:00 -
Sa, 13.07. 13:50 0
Sa, 13.07. 13:40 -
Sa, 13.07. 13:30 -
Sa, 13.07. 13:00 0
Sa, 13.07. 12:30 -
Sa, 13.07. 12:00 0
Sa, 13.07. 11:30 0
Link zu dieser Seite / Seite empfehlen

Das Wetter in ...